Time;durP1;ratioP1;P1;durP2;ratioP2;P2;SDS_P1;SDS_P2;PMS_P1;PMS_P2;Temp;Humidity;BMP_temperature;BMP_pressure;BME280_temperature;BME280_humidity;BME280_pressure;Samples;Min_cycle;Max_cycle;Signal;HPM_P1;HPM_P2
2023/01/12 00:00:00;;;;;;;13.40;7.68;;;;;;;;;;5116865;28;20481;-73
2023/01/12 00:02:45;;;;;;;13.20;7.95;;;;;;;;;;5102461;28;20470;-72
2023/01/12 00:05:32;;;;;;;16.88;8.52;;;;;;;;;;5102077;28;20459;-73
2023/01/12 00:08:18;;;;;;;15.23;8.00;;;;;;;;;;5101957;28;20020;-73
2023/01/12 00:11:03;;;;;;;14.00;8.32;;;;;;;;;;5116806;28;20071;-74
2023/01/12 00:13:49;;;;;;;18.30;9.52;;;;;;;;;;5116648;28;20012;-74
2023/01/12 00:16:37;;;;;;;16.27;9.00;;;;;;;;;;5123016;28;20027;-73
2023/01/12 00:19:23;;;;;;;14.38;8.95;;;;;;;;;;5120378;28;20065;-72
2023/01/12 00:22:11;;;;;;;15.25;8.70;;;;;;;;;;5117180;28;20034;-73
2023/01/12 00:24:57;;;;;;;18.60;9.73;;;;;;;;;;5102329;28;20047;-72
2023/01/12 00:27:42;;;;;;;17.55;9.05;;;;;;;;;;5115861;28;20340;-73
2023/01/12 00:30:28;;;;;;;16.58;9.50;;;;;;;;;;5101596;28;20026;-74
2023/01/12 00:33:14;;;;;;;16.65;9.57;;;;;;;;;;5116549;28;20020;-73
2023/01/12 00:36:03;;;;;;;19.33;9.05;;;;;;;;;;5116536;28;20019;-73
2023/01/12 00:38:49;;;;;;;13.50;8.70;;;;;;;;;;5116813;28;20020;-73
2023/01/12 00:47:47;;;;;;;16.45;9.00;;;;;;;;;;5120886;28;20024;-74
2023/01/12 00:50:32;;;;;;;19.02;9.10;;;;;;;;;;5117273;28;20016;-73
2023/01/12 00:53:18;;;;;;;17.50;9.07;;;;;;;;;;5116999;28;20015;-73
2023/01/12 00:56:04;;;;;;;16.15;9.10;;;;;;;;;;5115389;28;20023;-73
2023/01/12 00:58:49;;;;;;;16.40;8.88;;;;;;;;;;5104785;28;20023;-74
2023/01/12 01:01:35;;;;;;;20.05;9.43;;;;;;;;;;5107948;28;20066;-73
2023/01/12 01:04:20;;;;;;;15.38;8.90;;;;;;;;;;5122971;28;20034;-73
2023/01/12 01:07:06;;;;;;;14.05;8.23;;;;;;;;;;5128240;28;20078;-73
2023/01/12 01:09:52;;;;;;;17.23;9.02;;;;;;;;;;5113654;28;20024;-73
2023/01/12 01:12:37;;;;;;;15.98;9.30;;;;;;;;;;5101698;28;20015;-73
2023/01/12 01:15:23;;;;;;;16.40;9.50;;;;;;;;;;5116124;28;20054;-73
2023/01/12 01:18:08;;;;;;;17.77;9.10;;;;;;;;;;5115509;28;20030;-73
2023/01/12 01:20:54;;;;;;;16.52;8.95;;;;;;;;;;5114966;28;20507;-73
2023/01/12 01:23:40;;;;;;;14.65;8.27;;;;;;;;;;5115236;28;20038;-72
2023/01/12 01:26:26;;;;;;;17.65;9.10;;;;;;;;;;5101021;28;20075;-75
2023/01/12 01:29:12;;;;;;;14.90;8.70;;;;;;;;;;5115873;28;20352;-73
2023/01/12 01:31:58;;;;;;;17.35;9.05;;;;;;;;;;5101530;28;20016;-73
2023/01/12 01:34:45;;;;;;;16.20;8.93;;;;;;;;;;5100856;28;20011;-74
2023/01/12 01:37:30;;;;;;;15.25;8.85;;;;;;;;;;5115087;28;20511;-73
2023/01/12 01:40:16;;;;;;;18.02;8.63;;;;;;;;;;5100378;28;20039;-73
2023/01/12 01:43:02;;;;;;;15.23;9.18;;;;;;;;;;5114816;28;20023;-74
2023/01/12 01:46:01;;;;;;;16.35;9.43;;;;;;;;;;5114483;28;20034;-73
2023/01/12 01:48:47;;;;;;;16.10;8.90;;;;;;;;;;5115739;28;20321;-73
2023/01/12 01:51:32;;;;;;;16.10;9.27;;;;;;;;;;5114500;28;20024;-72
2023/01/12 01:54:18;;;;;;;17.80;9.45;;;;;;;;;;5114897;28;20027;-75
2023/01/12 01:57:04;;;;;;;14.80;9.32;;;;;;;;;;5115451;28;20036;-73
2023/01/12 01:59:51;;;;;;;19.30;10.15;;;;;;;;;;5115296;28;20088;-73
2023/01/12 02:02:37;;;;;;;17.40;9.40;;;;;;;;;;5099862;28;20024;-73
2023/01/12 02:05:24;;;;;;;16.08;9.48;;;;;;;;;;5114909;28;20474;-74
2023/01/12 02:08:28;;;;;;;18.58;10.40;;;;;;;;;;5115110;28;20028;-74
2023/01/12 02:17:38;;;;;;;17.23;10.00;;;;;;;;;;5119074;28;20103;-74
2023/01/12 02:20:33;;;;;;;22.20;10.45;;;;;;;;;;5118641;28;20026;-73
2023/01/12 02:23:28;;;;;;;21.95;11.63;;;;;;;;;;5119288;28;20024;-73
2023/01/12 02:26:13;;;;;;;20.80;10.80;;;;;;;;;;5118455;28;20459;-73
2023/01/12 02:28:59;;;;;;;19.35;10.40;;;;;;;;;;5118691;28;20016;-74
2023/01/12 02:31:50;;;;;;;20.95;10.82;;;;;;;;;;5118451;28;20020;-74
2023/01/12 02:34:39;;;;;;;23.52;11.13;;;;;;;;;;5118653;28;20028;-73
2023/01/12 02:37:34;;;;;;;22.52;10.63;;;;;;;;;;5103953;28;20027;-74
2023/01/12 02:40:28;;;;;;;17.75;10.35;;;;;;;;;;5118926;28;20035;-73
2023/01/12 02:43:19;;;;;;;19.48;10.23;;;;;;;;;;5117551;28;20035;-74
2023/01/12 02:46:13;;;;;;;21.45;11.32;;;;;;;;;;5117570;28;20020;-74
2023/01/12 02:49:19;;;;;;;20.00;10.13;;;;;;;;;;5117584;28;20031;-74
2023/01/12 02:52:08;;;;;;;20.23;10.85;;;;;;;;;;5103530;28;20030;-75
2023/01/12 02:54:54;;;;;;;21.23;10.45;;;;;;;;;;5117421;28;20452;-74
2023/01/12 02:57:39;;;;;;;19.25;11.02;;;;;;;;;;5118415;28;20103;-74
2023/01/12 03:00:25;;;;;;;19.40;11.18;;;;;;;;;;5118168;28;20043;-75
2023/01/12 03:03:11;;;;;;;21.25;10.60;;;;;;;;;;5118191;28;20062;-75
2023/01/12 03:05:58;;;;;;;19.25;10.20;;;;;;;;;;5118123;28;20035;-74
2023/01/12 03:08:46;;;;;;;21.77;9.80;;;;;;;;;;5118066;28;20432;-75
2023/01/12 03:11:33;;;;;;;19.67;9.52;;;;;;;;;;5118738;28;20015;-75
2023/01/12 03:14:20;;;;;;;15.85;8.82;;;;;;;;;;5117538;28;20016;-75
2023/01/12 03:17:07;;;;;;;15.18;8.55;;;;;;;;;;5102334;28;20126;-75
2023/01/12 03:19:53;;;;;;;13.55;8.20;;;;;;;;;;5117752;28;20451;-75
2023/01/12 03:22:42;;;;;;;17.67;8.93;;;;;;;;;;5117179;28;20080;-77
2023/01/12 03:25:30;;;;;;;17.25;9.13;;;;;;;;;;5116753;28;20019;-74
2023/01/12 03:28:17;;;;;;;15.18;8.77;;;;;;;;;;5101888;28;20030;-75
2023/01/12 03:31:07;;;;;;;13.77;8.63;;;;;;;;;;5103015;28;20012;-74
2023/01/12 03:33:53;;;;;;;12.43;7.20;;;;;;;;;;5103023;28;20020;-75
2023/01/12 03:36:51;;;;;;;12.43;6.80;;;;;;;;;;5118082;28;20028;-75
2023/01/12 03:39:44;;;;;;;14.63;7.18;;;;;;;;;;5102715;28;20047;-74
2023/01/12 03:42:37;;;;;;;11.68;7.05;;;;;;;;;;5118337;28;20031;-75
2023/01/12 03:45:22;;;;;;;11.48;6.85;;;;;;;;;;5117029;28;20051;-75
2023/01/12 03:48:20;;;;;;;11.40;6.60;;;;;;;;;;5117992;28;20026;-74
2023/01/12 03:51:20;;;;;;;10.73;7.13;;;;;;;;;;5102185;28;20016;-76
2023/01/12 03:54:09;;;;;;;12.63;7.22;;;;;;;;;;5101856;28;20313;-75
2023/01/12 03:56:55;;;;;;;14.70;7.20;;;;;;;;;;5117493;28;20028;-75
2023/01/12 03:59:40;;;;;;;13.60;7.82;;;;;;;;;;5117306;28;20032;-75
2023/01/12 04:02:28;;;;;;;15.85;8.60;;;;;;;;;;5100806;28;20395;-74
2023/01/12 04:05:14;;;;;;;12.30;7.60;;;;;;;;;;5118314;28;20076;-75
2023/01/12 04:08:00;;;;;;;15.40;8.20;;;;;;;;;;5116850;28;20037;-75
2023/01/12 04:10:46;;;;;;;13.73;7.72;;;;;;;;;;5117279;28;20015;-76
2023/01/12 04:13:31;;;;;;;13.98;8.00;;;;;;;;;;5117351;28;20007;-75
2023/01/12 04:16:17;;;;;;;15.30;8.63;;;;;;;;;;5117167;28;20030;-75
2023/01/12 04:19:03;;;;;;;15.85;8.32;;;;;;;;;;5101789;28;20024;-76
2023/01/12 04:24:52;;;;;;;15.35;8.25;;;;;;;;;;5117371;28;20098;-76
2023/01/12 04:27:44;;;;;;;13.50;8.10;;;;;;;;;;5102260;28;20348;-76
2023/01/12 04:30:31;;;;;;;14.68;8.52;;;;;;;;;;5116297;28;20058;-75
2023/01/12 04:33:17;;;;;;;17.75;10.05;;;;;;;;;;5117827;28;20058;-75
2023/01/12 04:36:02;;;;;;;15.07;8.50;;;;;;;;;;5100248;28;20026;-75
2023/01/12 04:38:48;;;;;;;15.15;8.73;;;;;;;;;;5115970;28;20058;-75
2023/01/12 04:41:34;;;;;;;18.10;9.80;;;;;;;;;;5101918;28;20042;-77
2023/01/12 04:44:19;;;;;;;17.92;10.38;;;;;;;;;;5115953;28;20026;-76
2023/01/12 04:47:06;;;;;;;18.98;10.90;;;;;;;;;;5100925;28;20055;-76
2023/01/12 04:49:51;;;;;;;18.10;10.82;;;;;;;;;;5117149;28;20115;-76
2023/01/12 04:52:37;;;;;;;21.42;11.95;;;;;;;;;;5114903;28;20089;-77
2023/01/12 04:55:23;;;;;;;18.08;10.77;;;;;;;;;;5116231;28;20077;-75
2023/01/12 04:58:09;;;;;;;20.90;12.30;;;;;;;;;;5116157;28;20023;-75
2023/01/12 05:00:54;;;;;;;22.55;11.93;;;;;;;;;;5116205;28;20122;-75
2023/01/12 05:03:40;;;;;;;22.92;13.18;;;;;;;;;;5116836;28;20020;-75
2023/01/12 05:06:26;;;;;;;22.27;13.00;;;;;;;;;;5115420;28;20015;-75
2023/01/12 05:12:16;;;;;;;22.40;11.82;;;;;;;;;;5121317;28;20003;-73
2023/01/12 05:15:02;;;;;;;18.83;10.70;;;;;;;;;;5123061;28;20037;-76
2023/01/12 05:17:48;;;;;;;19.15;11.63;;;;;;;;;;5135631;28;20059;-74
2023/01/12 05:20:33;;;;;;;20.98;11.15;;;;;;;;;;5132771;28;20026;-74
2023/01/12 05:23:19;;;;;;;19.58;11.40;;;;;;;;;;5123599;28;20020;-74
2023/01/12 05:26:05;;;;;;;17.67;11.15;;;;;;;;;;5116822;28;20047;-75
2023/01/12 05:28:50;;;;;;;17.38;10.98;;;;;;;;;;5115828;28;20028;-74
2023/01/12 05:31:36;;;;;;;15.55;9.88;;;;;;;;;;5115568;28;20125;-75
2023/01/12 05:34:22;;;;;;;16.17;9.80;;;;;;;;;;5115329;28;20024;-76
2023/01/12 05:37:07;;;;;;;18.92;10.60;;;;;;;;;;5113850;28;20177;-76
2023/01/12 05:39:53;;;;;;;19.58;11.25;;;;;;;;;;5115674;28;20024;-75
2023/01/12 05:45:42;;;;;;;18.23;10.82;;;;;;;;;;5118328;28;20413;-75
2023/01/12 05:48:29;;;;;;;20.25;11.27;;;;;;;;;;5107648;28;20016;-75
2023/01/12 05:51:14;;;;;;;18.58;10.18;;;;;;;;;;5133585;28;20045;-74
2023/01/12 05:54:01;;;;;;;21.05;11.27;;;;;;;;;;5117639;28;20111;-75
2023/01/12 05:56:47;;;;;;;19.15;10.38;;;;;;;;;;5102230;28;20019;-75
2023/01/12 05:59:33;;;;;;;16.02;10.18;;;;;;;;;;5117475;28;20463;-75
2023/01/12 06:02:20;;;;;;;24.52;12.18;;;;;;;;;;5114942;28;20372;-75
2023/01/12 06:05:08;;;;;;;20.13;12.30;;;;;;;;;;5115263;28;20448;-76
2023/01/12 06:07:53;;;;;;;21.52;12.13;;;;;;;;;;5099381;28;20102;-75
2023/01/12 06:10:39;;;;;;;17.08;11.02;;;;;;;;;;5113697;28;20028;-76
2023/01/12 06:16:29;;;;;;;21.27;12.40;;;;;;;;;;5114700;28;20160;-76
2023/01/12 06:19:14;;;;;;;24.80;13.07;;;;;;;;;;5114275;28;20309;-75
2023/01/12 06:22:00;;;;;;;21.30;12.88;;;;;;;;;;5114500;28;20020;-76
2023/01/12 06:24:47;;;;;;;26.27;13.05;;;;;;;;;;5100561;28;20106;-76
2023/01/12 06:27:34;;;;;;;31.08;17.08;;;;;;;;;;5099484;28;20023;-75
2023/01/12 06:30:19;;;;;;;46.45;20.98;;;;;;;;;;5114701;28;20084;-75
2023/01/12 06:33:05;;;;;;;48.38;23.10;;;;;;;;;;5113690;28;20020;-76
2023/01/12 06:35:51;;;;;;;37.58;19.52;;;;;;;;;;5099719;28;20023;-75
2023/01/12 06:38:37;;;;;;;28.70;15.93;;;;;;;;;;5115494;28;20023;-75
2023/01/12 06:44:26;;;;;;;27.20;16.00;;;;;;;;;;5114246;28;20020;-76
2023/01/12 06:47:12;;;;;;;27.88;15.25;;;;;;;;;;5114485;28;20352;-75
2023/01/12 06:49:58;;;;;;;23.17;13.82;;;;;;;;;;5114912;28;20060;-76
2023/01/12 06:52:43;;;;;;;23.23;13.15;;;;;;;;;;5100261;28;20030;-76
2023/01/12 06:55:29;;;;;;;23.00;14.30;;;;;;;;;;5114512;28;20043;-76
2023/01/12 06:58:15;;;;;;;25.15;15.02;;;;;;;;;;5099182;28;20085;-76
2023/01/12 07:01:01;;;;;;;31.48;16.77;;;;;;;;;;5103501;28;20040;-76
2023/01/12 07:03:47;;;;;;;30.45;17.42;;;;;;;;;;5118169;28;20085;-75
2023/01/12 07:06:33;;;;;;;41.63;19.50;;;;;;;;;;5118072;28;20027;-75
2023/01/12 07:09:18;;;;;;;40.35;20.67;;;;;;;;;;5117469;28;20074;-75
2023/01/12 07:12:04;;;;;;;35.78;19.45;;;;;;;;;;5117937;28;20032;-75
2023/01/12 07:14:50;;;;;;;33.95;17.13;;;;;;;;;;5103113;28;20100;-76
2023/01/12 07:17:35;;;;;;;28.42;15.20;;;;;;;;;;5117181;28;20043;-74
2023/01/12 07:20:21;;;;;;;24.13;13.80;;;;;;;;;;5102040;28;20030;-76
2023/01/12 07:23:06;;;;;;;26.45;14.85;;;;;;;;;;5117496;28;20024;-75
2023/01/12 07:25:52;;;;;;;22.42;14.02;;;;;;;;;;5117710;28;20020;-74
2023/01/12 07:28:37;;;;;;;24.20;13.07;;;;;;;;;;5102447;28;20523;-74
2023/01/12 07:31:23;;;;;;;22.52;13.80;;;;;;;;;;5118380;27;20032;-75
2023/01/12 07:34:09;;;;;;;23.75;14.75;;;;;;;;;;5102204;28;20016;-75
2023/01/12 07:36:54;;;;;;;24.27;12.80;;;;;;;;;;5117527;28;20016;-76
2023/01/12 07:39:40;;;;;;;22.02;11.52;;;;;;;;;;5103038;28;20475;-75
2023/01/12 07:42:25;;;;;;;17.55;11.15;;;;;;;;;;5117973;28;20023;-75
2023/01/12 07:45:11;;;;;;;19.40;12.18;;;;;;;;;;5116934;28;20032;-77
2023/01/12 07:47:57;;;;;;;20.85;12.38;;;;;;;;;;5118192;28;20094;-75
2023/01/12 07:50:42;;;;;;;27.73;15.32;;;;;;;;;;5117049;28;20012;-76
2023/01/12 07:53:28;;;;;;;33.50;15.32;;;;;;;;;;5117117;28;20043;-75
2023/01/12 07:56:15;;;;;;;27.52;14.63;;;;;;;;;;5117762;28;20440;-77
2023/01/12 07:59:00;;;;;;;28.80;14.07;;;;;;;;;;5115935;28;20436;-76
2023/01/12 08:01:46;;;;;;;24.05;13.70;;;;;;;;;;5116589;28;20051;-76
2023/01/12 08:04:32;;;;;;;22.42;14.05;;;;;;;;;;5117430;28;20031;-76
2023/01/12 08:07:17;;;;;;;25.65;14.38;;;;;;;;;;5118004;28;20027;-76
2023/01/12 08:10:03;;;;;;;30.52;17.52;;;;;;;;;;5117154;28;20024;-77
2023/01/12 08:12:49;;;;;;;28.08;16.65;;;;;;;;;;5102655;28;20011;-76
2023/01/12 08:15:42;;;;;;;28.27;17.05;;;;;;;;;;5117180;28;20388;-77
2023/01/12 08:18:41;;;;;;;26.70;15.30;;;;;;;;;;5116910;28;20394;-76
2023/01/12 08:21:33;;;;;;;31.80;17.33;;;;;;;;;;5101480;28;20503;-76
2023/01/12 08:24:21;;;;;;;30.58;19.10;;;;;;;;;;5102783;28;20392;-76
2023/01/12 08:27:07;;;;;;;31.95;20.40;;;;;;;;;;5101692;28;20015;-75
2023/01/12 08:29:56;;;;;;;34.80;20.00;;;;;;;;;;5116592;28;20028;-75
2023/01/12 08:32:42;;;;;;;32.95;19.58;;;;;;;;;;5101516;28;20432;-75
2023/01/12 08:35:28;;;;;;;36.03;20.08;;;;;;;;;;5100642;28;20455;-76
2023/01/12 08:38:14;;;;;;;33.38;19.65;;;;;;;;;;5117101;28;20110;-75
2023/01/12 08:44:06;;;;;;;34.00;18.48;;;;;;;;;;5115468;28;20023;-76
2023/01/12 08:46:52;;;;;;;32.05;19.05;;;;;;;;;;5116003;28;20031;-77
2023/01/12 08:49:38;;;;;;;32.65;18.00;;;;;;;;;;5116483;28;20107;-75
2023/01/12 08:52:24;;;;;;;37.40;19.23;;;;;;;;;;5114758;28;20035;-75
2023/01/12 08:55:10;;;;;;;34.97;20.83;;;;;;;;;;5101391;28;20413;-75
2023/01/12 08:57:55;;;;;;;36.58;21.33;;;;;;;;;;5100871;28;20554;-74
2023/01/12 09:00:41;;;;;;;39.25;21.90;;;;;;;;;;5096856;28;20052;-76
2023/01/12 09:03:26;;;;;;;40.28;21.63;;;;;;;;;;5095036;28;20016;-76
2023/01/12 09:06:17;;;;;;;32.08;17.95;;;;;;;;;;5097780;28;20016;-75
2023/01/12 09:09:04;;;;;;;28.33;15.38;;;;;;;;;;5096804;28;20433;-75
2023/01/12 09:11:51;;;;;;;24.25;15.23;;;;;;;;;;5100476;28;20043;-76
2023/01/12 09:14:40;;;;;;;20.55;12.70;;;;;;;;;;5095208;28;20465;-76
2023/01/12 09:17:26;;;;;;;17.60;10.13;;;;;;;;;;5093737;28;20028;-77
2023/01/12 09:20:12;;;;;;;16.63;10.23;;;;;;;;;;5095063;28;20020;-76
2023/01/12 09:22:57;;;;;;;19.88;11.70;;;;;;;;;;5092399;28;20020;-76
2023/01/12 09:25:43;;;;;;;25.88;14.23;;;;;;;;;;5095703;28;20024;-76
2023/01/12 09:28:30;;;;;;;31.45;16.38;;;;;;;;;;5096448;28;20012;-76
2023/01/12 09:31:17;;;;;;;31.90;18.63;;;;;;;;;;5094132;28;20020;-75
2023/01/12 09:34:03;;;;;;;35.78;20.55;;;;;;;;;;5096469;28;20024;-76
2023/01/12 09:36:51;;;;;;;37.00;20.02;;;;;;;;;;5095668;28;20035;-76
2023/01/12 09:39:36;;;;;;;26.98;16.42;;;;;;;;;;5093368;28;20096;-76
2023/01/12 09:48:30;;;;;;;31.52;16.48;;;;;;;;;;5096051;28;20020;-75
2023/01/12 09:51:22;;;;;;;27.30;16.92;;;;;;;;;;5094528;28;20023;-75
2023/01/12 09:54:08;;;;;;;26.25;16.30;;;;;;;;;;5095601;28;20015;-77
2023/01/12 09:57:00;;;;;;;27.17;16.50;;;;;;;;;;5101776;28;20024;-77
2023/01/12 09:59:56;;;;;;;24.08;14.88;;;;;;;;;;5110653;28;20020;-76
2023/01/12 10:02:47;;;;;;;25.73;15.27;;;;;;;;;;5116718;28;20034;-76
2023/01/12 10:05:38;;;;;;;26.20;15.40;;;;;;;;;;5114910;28;20440;-75
2023/01/12 10:08:35;;;;;;;30.23;19.13;;;;;;;;;;5103272;28;20016;-76
2023/01/12 10:11:24;;;;;;;39.33;21.65;;;;;;;;;;5102583;28;20325;-76
2023/01/12 10:14:28;;;;;;;40.88;23.35;;;;;;;;;;5102848;28;20012;-76
2023/01/12 10:17:14;;;;;;;40.03;22.02;;;;;;;;;;5103681;28;20016;-75
2023/01/12 10:19:59;;;;;;;37.92;22.55;;;;;;;;;;5103136;28;20038;-76
2023/01/12 10:22:49;;;;;;;37.45;22.13;;;;;;;;;;5124186;28;20031;-75
2023/01/12 10:25:40;;;;;;;65.05;38.75;;;;;;;;;;5131613;28;20443;-76
2023/01/12 10:28:29;;;;;;;38.83;20.65;;;;;;;;;;5128500;28;20217;-78
2023/01/12 10:31:18;;;;;;;36.70;20.55;;;;;;;;;;5102070;28;20024;-76
2023/01/12 10:34:08;;;;;;;36.35;20.67;;;;;;;;;;5119144;28;20036;-76
2023/01/12 10:36:59;;;;;;;39.17;22.70;;;;;;;;;;5109051;28;20024;-76
2023/01/12 10:39:45;;;;;;;40.33;23.63;;;;;;;;;;5106401;28;20509;-77
2023/01/12 10:45:35;;;;;;;37.40;21.80;;;;;;;;;;5129626;28;20031;-75
2023/01/12 10:48:21;;;;;;;32.13;19.38;;;;;;;;;;5106737;28;20016;-76
2023/01/12 10:51:16;;;;;;;32.33;16.85;;;;;;;;;;5119727;28;20023;-76
2023/01/12 10:54:08;;;;;;;27.20;17.15;;;;;;;;;;5116304;28;20004;-75
2023/01/12 10:57:06;;;;;;;23.27;14.32;;;;;;;;;;5122122;28;20020;-76
2023/01/12 10:59:57;;;;;;;21.45;12.82;;;;;;;;;;5123798;28;20027;-75
2023/01/12 11:02:43;;;;;;;25.35;13.45;;;;;;;;;;5124382;28;20046;-76
2023/01/12 11:05:33;;;;;;;18.08;11.07;;;;;;;;;;5110267;28;20444;-76
2023/01/12 11:08:24;;;;;;;20.65;12.27;;;;;;;;;;5132132;28;20051;-75
2023/01/12 11:11:30;;;;;;;18.63;11.02;;;;;;;;;;5132852;28;20348;-75
2023/01/12 11:14:36;;;;;;;19.35;11.82;;;;;;;;;;5131137;28;20023;-76
2023/01/12 11:17:51;;;;;;;17.20;10.95;;;;;;;;;;5138208;28;20028;-75
2023/01/12 11:20:38;;;;;;;22.73;13.85;;;;;;;;;;5137961;28;20094;-78
2023/01/12 11:23:33;;;;;;;20.10;12.38;;;;;;;;;;5124153;28;20091;-76
2023/01/12 11:26:22;;;;;;;17.48;10.82;;;;;;;;;;5138142;28;20027;-77
2023/01/12 11:29:28;;;;;;;21.35;12.70;;;;;;;;;;5138209;28;20397;-75
2023/01/12 11:32:14;;;;;;;23.60;13.88;;;;;;;;;;5108507;28;20083;-75
2023/01/12 11:35:03;;;;;;;30.20;16.80;;;;;;;;;;5128790;28;20478;-77
2023/01/12 11:37:51;;;;;;;29.80;17.33;;;;;;;;;;5104558;28;20031;-76
2023/01/12 11:40:37;;;;;;;36.13;20.33;;;;;;;;;;5117755;28;20023;-77
2023/01/12 11:44:01;;;;;;;28.63;17.35;;;;;;;;;;5116776;28;20478;-77
2023/01/12 11:46:49;;;;;;;28.10;17.88;;;;;;;;;;5001344;28;20025;-76
2023/01/12 11:49:43;;;;;;;28.73;17.42;;;;;;;;;;5016688;28;20147;-76
2023/01/12 11:52:29;;;;;;;26.30;16.73;;;;;;;;;;5097525;28;20059;-75
2023/01/12 11:55:15;;;;;;;31.23;18.27;;;;;;;;;;5118032;28;20198;-76
2023/01/12 11:58:25;;;;;;;31.92;19.35;;;;;;;;;;5117990;28;20104;-76
2023/01/12 12:01:20;;;;;;;25.83;17.15;;;;;;;;;;5101794;28;20081;-75
2023/01/12 12:04:28;;;;;;;30.60;18.13;;;;;;;;;;5101499;28;20016;-76
2023/01/12 12:07:32;;;;;;;30.45;18.75;;;;;;;;;;5084547;28;20364;-75
2023/01/12 12:10:22;;;;;;;30.15;19.13;;;;;;;;;;5116756;28;20363;-75
2023/01/12 12:13:19;;;;;;;28.30;18.15;;;;;;;;;;5101793;28;20020;-74
2023/01/12 12:16:22;;;;;;;27.80;17.60;;;;;;;;;;5101618;28;20042;-76
2023/01/12 12:19:20;;;;;;;23.00;16.08;;;;;;;;;;5102283;28;20088;-76
2023/01/12 12:22:15;;;;;;;26.13;16.23;;;;;;;;;;5099929;28;20026;-76
2023/01/12 12:25:17;;;;;;;29.33;16.73;;;;;;;;;;5116359;28;20051;-76
2023/01/12 12:28:09;;;;;;;29.52;17.13;;;;;;;;;;5116628;28;20031;-76
2023/01/12 12:31:15;;;;;;;27.05;16.13;;;;;;;;;;5116358;28;20443;-76
2023/01/12 12:34:15;;;;;;;20.55;13.73;;;;;;;;;;5100704;28;20111;-76
2023/01/12 12:37:15;;;;;;;22.50;13.80;;;;;;;;;;5101275;28;20038;-76
2023/01/12 12:40:00;;;;;;;18.42;11.98;;;;;;;;;;5117214;28;20107;-76
2023/01/12 12:45:53;;;;;;;15.63;9.98;;;;;;;;;;5116733;28;20027;-76
2023/01/12 12:48:45;;;;;;;13.30;8.93;;;;;;;;;;5117573;28;20106;-75
2023/01/12 12:51:32;;;;;;;12.77;8.60;;;;;;;;;;5117130;28;20090;-75
2023/01/12 12:54:19;;;;;;;13.07;8.18;;;;;;;;;;5115644;28;20015;-76
2023/01/12 12:57:05;;;;;;;13.02;8.05;;;;;;;;;;5115648;28;20015;-77
2023/01/12 12:59:51;;;;;;;9.75;6.50;;;;;;;;;;5101407;28;20026;-75
2023/01/12 13:02:38;;;;;;;12.60;6.82;;;;;;;;;;5101753;28;20035;-76
2023/01/12 13:05:39;;;;;;;9.18;6.40;;;;;;;;;;5116350;28;20093;-75
2023/01/12 13:08:25;;;;;;;10.85;7.18;;;;;;;;;;5115460;28;20024;-76
2023/01/12 13:11:11;;;;;;;14.48;8.60;;;;;;;;;;5115743;28;20019;-76
2023/01/12 13:13:59;;;;;;;13.43;8.70;;;;;;;;;;5116141;28;20022;-75
2023/01/12 13:16:46;;;;;;;10.30;6.80;;;;;;;;;;5116631;28;20034;-75
2023/01/12 13:19:39;;;;;;;13.05;8.98;;;;;;;;;;5116396;28;20031;-75
2023/01/12 13:22:28;;;;;;;14.93;9.10;;;;;;;;;;5115399;28;20031;-75
2023/01/12 13:25:19;;;;;;;13.25;8.70;;;;;;;;;;5115506;28;20019;-76
2023/01/12 13:28:05;;;;;;;15.13;9.52;;;;;;;;;;5101766;28;20030;-77
2023/01/12 13:30:52;;;;;;;12.25;8.00;;;;;;;;;;5114853;28;20031;-76
2023/01/12 13:33:37;;;;;;;11.23;7.40;;;;;;;;;;5116304;28;20449;-75
2023/01/12 13:36:29;;;;;;;13.07;8.73;;;;;;;;;;5115710;28;20031;-76
2023/01/12 13:39:15;;;;;;;10.48;7.45;;;;;;;;;;5115844;28;20099;-76
2023/01/12 13:45:09;;;;;;;13.73;8.73;;;;;;;;;;5116986;28;20012;-77
2023/01/12 13:47:55;;;;;;;16.52;9.85;;;;;;;;;;5117120;28;20035;-76
2023/01/12 13:50:45;;;;;;;15.77;9.77;;;;;;;;;;5102016;28;20440;-76
2023/01/12 13:53:30;;;;;;;12.52;8.00;;;;;;;;;;5100821;28;20459;-75
2023/01/12 13:56:18;;;;;;;11.73;6.95;;;;;;;;;;5101050;28;20122;-75
2023/01/12 13:59:05;;;;;;;10.60;7.13;;;;;;;;;;5101505;28;20416;-76
2023/01/12 14:01:50;;;;;;;10.32;6.93;;;;;;;;;;5099899;28;20058;-75
2023/01/12 14:04:52;;;;;;;8.73;6.03;;;;;;;;;;5100424;28;20114;-76
2023/01/12 14:08:04;;;;;;;9.27;6.53;;;;;;;;;;5116251;28;20325;-75
2023/01/12 14:10:56;;;;;;;10.40;6.90;;;;;;;;;;5107973;28;20021;-77
2023/01/12 14:17:47;;;;;;;10.98;7.47;;;;;;;;;;5107461;28;20020;-74
2023/01/12 14:20:25;;;;;;;8.80;6.05;;;;;;;;;;5123597;27;20019;-76
2023/01/12 14:23:25;;;;;;;12.93;8.07;;;;;;;;;;5121791;28;20110;-75
2023/01/12 14:26:15;;;;;;;13.10;8.05;;;;;;;;;;5122321;28;20030;-76
2023/01/12 14:29:01;;;;;;;14.85;8.82;;;;;;;;;;5123056;28;20404;-75
2023/01/12 14:31:51;;;;;;;14.60;9.15;;;;;;;;;;5122309;28;20020;-74
2023/01/12 14:34:36;;;;;;;14.27;9.13;;;;;;;;;;5121763;28;20015;-75
2023/01/12 14:37:28;;;;;;;11.93;8.23;;;;;;;;;;5122612;28;20052;-75
2023/01/12 14:40:22;;;;;;;15.70;9.07;;;;;;;;;;5110493;28;20054;-77
2023/01/12 14:46:28;;;;;;;12.18;7.65;;;;;;;;;;5125131;28;20067;-74
2023/01/12 14:49:34;;;;;;;10.13;7.40;;;;;;;;;;5130397;28;20015;-76
2023/01/12 14:52:30;;;;;;;13.95;8.57;;;;;;;;;;5122077;28;20333;-75
2023/01/12 14:55:17;;;;;;;12.65;8.50;;;;;;;;;;5108082;28;20492;-75
2023/01/12 14:58:03;;;;;;;14.02;9.13;;;;;;;;;;5106459;28;20080;-76
2023/01/12 15:00:49;;;;;;;11.88;7.90;;;;;;;;;;5123680;28;20061;-77
2023/01/12 15:03:35;;;;;;;15.80;9.57;;;;;;;;;;5122276;28;20382;-77
2023/01/12 15:06:21;;;;;;;13.32;8.82;;;;;;;;;;5106629;28;20106;-77
2023/01/12 15:09:21;;;;;;;18.90;10.52;;;;;;;;;;5107228;28;20019;-77
2023/01/12 15:12:23;;;;;;;16.17;10.73;;;;;;;;;;5122609;28;20106;-77
2023/01/12 15:15:23;;;;;;;25.33;15.10;;;;;;;;;;5110333;28;20355;-78
2023/01/12 15:27:24;;;;;;;25.40;14.93;;;;;;;;;;5117091;28;20038;-77
2023/01/12 15:30:13;;;;;;;22.05;13.52;;;;;;;;;;5104159;28;20019;-78
2023/01/12 15:33:01;;;;;;;20.85;13.27;;;;;;;;;;5103168;28;20112;-78
2023/01/12 15:35:47;;;;;;;18.55;10.90;;;;;;;;;;5117842;28;20011;-79
2023/01/12 15:38:35;;;;;;;14.45;9.77;;;;;;;;;;5121570;28;20023;-77
2023/01/12 15:44:26;;;;;;;15.07;9.93;;;;;;;;;;5118210;28;20019;-78
2023/01/12 15:47:13;;;;;;;16.15;9.57;;;;;;;;;;5105251;28;20405;-78
2023/01/12 15:50:01;;;;;;;14.02;8.27;;;;;;;;;;5118008;28;20463;-78
2023/01/12 15:52:47;;;;;;;15.02;8.57;;;;;;;;;;5118785;28;20023;-77
2023/01/12 15:55:34;;;;;;;14.52;8.98;;;;;;;;;;5118836;28;20047;-77
2023/01/12 15:58:20;;;;;;;15.25;8.18;;;;;;;;;;5102934;28;20020;-78
2023/01/12 16:01:09;;;;;;;12.77;8.20;;;;;;;;;;5117198;28;20044;-79
2023/01/12 16:03:57;;;;;;;13.82;8.68;;;;;;;;;;5103357;28;20020;-77
2023/01/12 16:06:43;;;;;;;14.18;8.00;;;;;;;;;;5118825;28;20421;-78
2023/01/12 16:09:29;;;;;;;12.63;8.95;;;;;;;;;;5102980;28;20024;-78
2023/01/12 16:12:18;;;;;;;14.32;9.35;;;;;;;;;;5118003;28;20398;-78
2023/01/12 16:15:04;;;;;;;17.02;10.75;;;;;;;;;;5118248;28;20019;-78
2023/01/12 16:17:50;;;;;;;18.25;11.50;;;;;;;;;;5121936;28;20016;-80
2023/01/12 16:20:36;;;;;;;17.15;11.35;;;;;;;;;;5120562;28;20023;-80
2023/01/12 16:23:22;;;;;;;19.52;11.38;;;;;;;;;;5101670;28;20116;-80
2023/01/12 16:26:08;;;;;;;21.05;12.25;;;;;;;;;;5121880;27;20073;-78
2023/01/12 16:28:56;;;;;;;18.88;11.48;;;;;;;;;;5112037;28;20169;-78
2023/01/12 16:31:45;;;;;;;20.42;12.80;;;;;;;;;;5109278;28;20048;-78
2023/01/12 16:34:31;;;;;;;21.88;12.90;;;;;;;;;;5107255;28;20025;-77
2023/01/12 16:37:18;;;;;;;16.00;10.52;;;;;;;;;;5120891;28;20042;-76
2023/01/12 16:40:04;;;;;;;18.27;10.90;;;;;;;;;;5104641;28;20031;-78
2023/01/12 16:42:50;;;;;;;14.50;9.25;;;;;;;;;;5101808;28;20027;-77
2023/01/12 16:45:41;;;;;;;16.17;10.25;;;;;;;;;;5116827;28;20336;-77
2023/01/12 16:48:28;;;;;;;17.50;10.43;;;;;;;;;;5100642;28;20051;-77
2023/01/12 16:51:15;;;;;;;17.85;11.15;;;;;;;;;;5117922;28;20111;-76
2023/01/12 16:54:01;;;;;;;20.10;12.50;;;;;;;;;;5103201;28;20039;-77
2023/01/12 16:56:47;;;;;;;15.80;9.93;;;;;;;;;;5102037;28;20038;-77
2023/01/12 16:59:32;;;;;;;19.48;12.02;;;;;;;;;;5117223;28;20028;-76
2023/01/12 17:02:18;;;;;;;20.63;12.45;;;;;;;;;;5121579;28;20047;-78
2023/01/12 17:05:06;;;;;;;19.52;12.65;;;;;;;;;;5110448;28;20020;-76
2023/01/12 17:07:52;;;;;;;23.02;14.65;;;;;;;;;;5103178;28;20031;-78
2023/01/12 17:10:37;;;;;;;26.92;15.63;;;;;;;;;;5119155;28;20098;-75
2023/01/12 17:13:23;;;;;;;33.28;18.75;;;;;;;;;;5123591;28;20026;-77
2023/01/12 17:16:09;;;;;;;33.38;19.27;;;;;;;;;;5120800;28;20028;-76
2023/01/12 17:18:55;;;;;;;35.63;21.08;;;;;;;;;;5130806;28;20023;-77
2023/01/12 17:21:41;;;;;;;36.72;22.33;;;;;;;;;;5101454;28;20019;-78
2023/01/12 17:24:28;;;;;;;33.80;19.58;;;;;;;;;;5100709;28;20164;-78
2023/01/12 17:27:13;;;;;;;33.97;19.58;;;;;;;;;;5099225;28;20026;-77
2023/01/12 17:29:59;;;;;;;31.33;18.15;;;;;;;;;;5100133;28;20019;-78